sensor_id;sensor_type;location;lat;lon;timestamp;P1;durP1;ratioP1;P2;durP2;ratioP2
48911;SDS011;34722;52.108;5.044;2022-08-21T00:01:24;17.67;;;6.88;;
48911;SDS011;34722;52.108;5.044;2022-08-21T00:03:53;12.85;;;8.10;;
48911;SDS011;34722;52.108;5.044;2022-08-21T00:06:21;14.20;;;7.53;;
48911;SDS011;34722;52.108;5.044;2022-08-21T00:08:48;10.23;;;6.70;;
48911;SDS011;34722;52.108;5.044;2022-08-21T00:11:15;20.90;;;8.05;;
48911;SDS011;34722;52.108;5.044;2022-08-21T00:13:41;17.35;;;7.18;;
48911;SDS011;34722;52.108;5.044;2022-08-21T00:16:06;13.52;;;6.90;;
48911;SDS011;34722;52.108;5.044;2022-08-21T00:18:32;13.98;;;6.85;;
48911;SDS011;34722;52.108;5.044;2022-08-21T00:20:58;14.10;;;7.00;;
48911;SDS011;34722;52.108;5.044;2022-08-21T00:23:24;12.38;;;6.53;;
48911;SDS011;34722;52.108;5.044;2022-08-21T00:25:50;10.13;;;6.85;;
48911;SDS011;34722;52.108;5.044;2022-08-21T00:28:16;11.85;;;7.57;;
48911;SDS011;34722;52.108;5.044;2022-08-21T00:30:45;10.07;;;6.57;;
48911;SDS011;34722;52.108;5.044;2022-08-21T00:33:11;11.68;;;7.00;;
48911;SDS011;34722;52.108;5.044;2022-08-21T00:35:38;16.77;;;7.38;;
48911;SDS011;34722;52.108;5.044;2022-08-21T00:38:06;13.07;;;6.43;;
48911;SDS011;34722;52.108;5.044;2022-08-21T00:40:38;21.63;;;7.15;;
48911;SDS011;34722;52.108;5.044;2022-08-21T00:43:26;19.95;;;7.00;;
48911;SDS011;34722;52.108;5.044;2022-08-21T00:45:55;13.07;;;7.05;;
48911;SDS011;34722;52.108;5.044;2022-08-21T00:48:21;13.55;;;6.72;;
48911;SDS011;34722;52.108;5.044;2022-08-21T00:50:55;14.02;;;8.00;;
48911;SDS011;34722;52.108;5.044;2022-08-21T00:55:56;12.68;;;6.90;;
48911;SDS011;34722;52.108;5.044;2022-08-21T00:58:25;13.50;;;6.18;;
48911;SDS011;34722;52.108;5.044;2022-08-21T01:00:52;13.18;;;7.38;;
48911;SDS011;34722;52.108;5.044;2022-08-21T01:03:19;12.90;;;6.15;;
48911;SDS011;34722;52.108;5.044;2022-08-21T01:05:48;12.73;;;6.72;;
48911;SDS011;34722;52.108;5.044;2022-08-21T01:08:14;14.65;;;6.68;;
48911;SDS011;34722;52.108;5.044;2022-08-21T01:10:42;15.65;;;6.40;;
48911;SDS011;34722;52.108;5.044;2022-08-21T01:13:10;12.00;;;5.80;;
48911;SDS011;34722;52.108;5.044;2022-08-21T01:15:38;12.35;;;7.22;;
48911;SDS011;34722;52.108;5.044;2022-08-21T01:18:08;11.80;;;5.80;;
48911;SDS011;34722;52.108;5.044;2022-08-21T01:20:36;15.07;;;6.40;;
48911;SDS011;34722;52.108;5.044;2022-08-21T01:23:04;18.42;;;7.22;;
48911;SDS011;34722;52.108;5.044;2022-08-21T01:25:30;9.05;;;6.28;;
48911;SDS011;34722;52.108;5.044;2022-08-21T01:27:57;12.93;;;6.78;;
48911;SDS011;34722;52.108;5.044;2022-08-21T01:30:26;15.65;;;7.68;;
48911;SDS011;34722;52.108;5.044;2022-08-21T01:32:53;11.13;;;6.32;;
48911;SDS011;34722;52.108;5.044;2022-08-21T01:35:21;13.65;;;6.43;;
48911;SDS011;34722;52.108;5.044;2022-08-21T01:37:47;11.63;;;6.95;;
48911;SDS011;34722;52.108;5.044;2022-08-21T01:40:14;13.27;;;7.10;;
48911;SDS011;34722;52.108;5.044;2022-08-21T01:42:41;12.43;;;6.65;;
48911;SDS011;34722;52.108;5.044;2022-08-21T01:45:10;14.45;;;7.20;;
48911;SDS011;34722;52.108;5.044;2022-08-21T01:47:37;16.80;;;6.68;;
48911;SDS011;34722;52.108;5.044;2022-08-21T01:50:07;16.52;;;7.15;;
48911;SDS011;34722;52.108;5.044;2022-08-21T01:52:35;13.30;;;6.82;;
48911;SDS011;34722;52.108;5.044;2022-08-21T01:55:01;17.35;;;7.85;;
48911;SDS011;34722;52.108;5.044;2022-08-21T01:57:28;17.10;;;7.45;;
48911;SDS011;34722;52.108;5.044;2022-08-21T01:59:54;11.65;;;8.43;;
48911;SDS011;34722;52.108;5.044;2022-08-21T02:02:19;18.65;;;8.00;;
48911;SDS011;34722;52.108;5.044;2022-08-21T02:04:45;16.50;;;7.70;;
48911;SDS011;34722;52.108;5.044;2022-08-21T02:07:10;14.73;;;6.95;;
48911;SDS011;34722;52.108;5.044;2022-08-21T02:09:36;14.18;;;7.68;;
48911;SDS011;34722;52.108;5.044;2022-08-21T02:12:02;14.05;;;7.72;;
48911;SDS011;34722;52.108;5.044;2022-08-21T02:14:30;17.42;;;7.65;;
48911;SDS011;34722;52.108;5.044;2022-08-21T02:16:56;16.25;;;8.90;;
48911;SDS011;34722;52.108;5.044;2022-08-21T02:19:21;17.15;;;8.80;;
48911;SDS011;34722;52.108;5.044;2022-08-21T02:21:47;18.60;;;8.13;;
48911;SDS011;34722;52.108;5.044;2022-08-21T02:24:13;16.35;;;8.30;;
48911;SDS011;34722;52.108;5.044;2022-08-21T02:26:38;18.20;;;7.93;;
48911;SDS011;34722;52.108;5.044;2022-08-21T02:29:04;15.40;;;8.73;;
48911;SDS011;34722;52.108;5.044;2022-08-21T02:31:30;17.27;;;9.27;;
48911;SDS011;34722;52.108;5.044;2022-08-21T02:33:56;16.30;;;8.75;;
48911;SDS011;34722;52.108;5.044;2022-08-21T02:36:22;21.27;;;9.63;;
48911;SDS011;34722;52.108;5.044;2022-08-21T02:38:47;13.98;;;8.38;;
48911;SDS011;34722;52.108;5.044;2022-08-21T02:41:15;23.58;;;9.50;;
48911;SDS011;34722;52.108;5.044;2022-08-21T02:43:44;18.70;;;8.82;;
48911;SDS011;34722;52.108;5.044;2022-08-21T02:46:11;15.15;;;7.80;;
48911;SDS011;34722;52.108;5.044;2022-08-21T02:48:38;24.33;;;9.30;;
48911;SDS011;34722;52.108;5.044;2022-08-21T02:51:05;14.90;;;8.77;;
48911;SDS011;34722;52.108;5.044;2022-08-21T02:53:34;25.40;;;9.20;;
48911;SDS011;34722;52.108;5.044;2022-08-21T02:56:01;22.17;;;9.38;;
48911;SDS011;34722;52.108;5.044;2022-08-21T02:58:31;18.77;;;8.70;;
48911;SDS011;34722;52.108;5.044;2022-08-21T03:00:59;23.23;;;8.90;;
48911;SDS011;34722;52.108;5.044;2022-08-21T03:03:25;15.48;;;8.20;;
48911;SDS011;34722;52.108;5.044;2022-08-21T03:05:53;16.90;;;10.27;;
48911;SDS011;34722;52.108;5.044;2022-08-21T03:08:20;19.90;;;8.95;;
48911;SDS011;34722;52.108;5.044;2022-08-21T03:10:49;21.50;;;9.18;;
48911;SDS011;34722;52.108;5.044;2022-08-21T03:13:16;14.65;;;8.52;;
48911;SDS011;34722;52.108;5.044;2022-08-21T03:15:45;17.67;;;9.23;;
48911;SDS011;34722;52.108;5.044;2022-08-21T03:18:12;21.30;;;9.45;;
48911;SDS011;34722;52.108;5.044;2022-08-21T03:20:38;18.38;;;9.07;;
48911;SDS011;34722;52.108;5.044;2022-08-21T03:23:05;24.58;;;9.30;;
48911;SDS011;34722;52.108;5.044;2022-08-21T03:25:31;18.73;;;9.88;;
48911;SDS011;34722;52.108;5.044;2022-08-21T03:27:58;22.27;;;9.38;;
48911;SDS011;34722;52.108;5.044;2022-08-21T03:30:24;18.70;;;10.13;;
48911;SDS011;34722;52.108;5.044;2022-08-21T03:32:50;24.67;;;9.85;;
48911;SDS011;34722;52.108;5.044;2022-08-21T03:35:16;19.95;;;9.55;;
48911;SDS011;34722;52.108;5.044;2022-08-21T03:37:43;22.40;;;9.20;;
48911;SDS011;34722;52.108;5.044;2022-08-21T03:40:10;19.33;;;9.60;;
48911;SDS011;34722;52.108;5.044;2022-08-21T03:42:37;19.05;;;9.32;;
48911;SDS011;34722;52.108;5.044;2022-08-21T03:45:03;16.65;;;9.80;;
48911;SDS011;34722;52.108;5.044;2022-08-21T03:47:30;20.92;;;9.85;;
48911;SDS011;34722;52.108;5.044;2022-08-21T03:49:55;18.77;;;10.43;;
48911;SDS011;34722;52.108;5.044;2022-08-21T03:52:21;16.10;;;10.00;;
48911;SDS011;34722;52.108;5.044;2022-08-21T03:54:47;22.50;;;11.23;;
48911;SDS011;34722;52.108;5.044;2022-08-21T03:57:12;22.42;;;12.23;;
48911;SDS011;34722;52.108;5.044;2022-08-21T03:59:38;27.60;;;12.00;;
48911;SDS011;34722;52.108;5.044;2022-08-21T04:02:05;22.52;;;11.88;;
48911;SDS011;34722;52.108;5.044;2022-08-21T04:04:32;22.13;;;12.27;;
48911;SDS011;34722;52.108;5.044;2022-08-21T04:06:58;21.25;;;12.13;;
48911;SDS011;34722;52.108;5.044;2022-08-21T04:09:24;24.80;;;11.70;;
48911;SDS011;34722;52.108;5.044;2022-08-21T04:11:50;20.35;;;11.63;;
48911;SDS011;34722;52.108;5.044;2022-08-21T04:14:16;26.67;;;13.32;;
48911;SDS011;34722;52.108;5.044;2022-08-21T04:16:43;21.15;;;11.30;;
48911;SDS011;34722;52.108;5.044;2022-08-21T04:19:09;19.60;;;12.35;;
48911;SDS011;34722;52.108;5.044;2022-08-21T04:21:36;26.95;;;12.02;;
48911;SDS011;34722;52.108;5.044;2022-08-21T04:24:03;20.65;;;12.30;;
48911;SDS011;34722;52.108;5.044;2022-08-21T04:26:29;20.20;;;12.77;;
48911;SDS011;34722;52.108;5.044;2022-08-21T04:28:56;21.48;;;12.38;;
48911;SDS011;34722;52.108;5.044;2022-08-21T04:31:22;21.80;;;12.55;;
48911;SDS011;34722;52.108;5.044;2022-08-21T04:33:48;18.58;;;12.65;;
48911;SDS011;34722;52.108;5.044;2022-08-21T04:36:17;27.70;;;12.80;;
48911;SDS011;34722;52.108;5.044;2022-08-21T04:38:43;24.40;;;11.90;;
48911;SDS011;34722;52.108;5.044;2022-08-21T04:41:09;23.65;;;12.60;;
48911;SDS011;34722;52.108;5.044;2022-08-21T04:43:35;26.30;;;13.00;;
48911;SDS011;34722;52.108;5.044;2022-08-21T04:46:00;28.83;;;15.38;;
48911;SDS011;34722;52.108;5.044;2022-08-21T04:48:26;28.25;;;14.00;;
48911;SDS011;34722;52.108;5.044;2022-08-21T04:50:57;23.45;;;13.32;;
48911;SDS011;34722;52.108;5.044;2022-08-21T04:56:23;23.55;;;13.30;;
48911;SDS011;34722;52.108;5.044;2022-08-21T04:58:53;25.15;;;13.50;;
48911;SDS011;34722;52.108;5.044;2022-08-21T05:01:22;24.52;;;12.95;;
48911;SDS011;34722;52.108;5.044;2022-08-21T05:03:53;22.98;;;13.00;;
48911;SDS011;34722;52.108;5.044;2022-08-21T05:06:21;30.15;;;13.77;;
48911;SDS011;34722;52.108;5.044;2022-08-21T05:08:48;22.23;;;13.45;;
48911;SDS011;34722;52.108;5.044;2022-08-21T05:11:18;28.67;;;14.88;;
48911;SDS011;34722;52.108;5.044;2022-08-21T05:13:45;27.30;;;14.55;;
48911;SDS011;34722;52.108;5.044;2022-08-21T05:16:12;18.77;;;13.15;;
48911;SDS011;34722;52.108;5.044;2022-08-21T05:18:37;18.42;;;11.98;;
48911;SDS011;34722;52.108;5.044;2022-08-21T05:21:03;18.60;;;10.25;;
48911;SDS011;34722;52.108;5.044;2022-08-21T05:23:29;17.77;;;9.13;;
48911;SDS011;34722;52.108;5.044;2022-08-21T05:25:58;15.10;;;8.48;;
48911;SDS011;34722;52.108;5.044;2022-08-21T05:28:58;17.77;;;9.35;;
48911;SDS011;34722;52.108;5.044;2022-08-21T05:31:24;16.02;;;9.85;;
48911;SDS011;34722;52.108;5.044;2022-08-21T05:33:50;21.35;;;10.20;;
48911;SDS011;34722;52.108;5.044;2022-08-21T05:36:17;17.50;;;9.43;;
48911;SDS011;34722;52.108;5.044;2022-08-21T05:41:54;19.38;;;9.05;;
48911;SDS011;34722;52.108;5.044;2022-08-21T05:44:20;24.70;;;9.63;;
48911;SDS011;34722;52.108;5.044;2022-08-21T05:46:45;17.35;;;10.00;;
48911;SDS011;34722;52.108;5.044;2022-08-21T05:49:17;15.55;;;9.20;;
48911;SDS011;34722;52.108;5.044;2022-08-21T05:52:03;15.27;;;9.27;;
48911;SDS011;34722;52.108;5.044;2022-08-21T05:54:31;22.80;;;9.82;;
48911;SDS011;34722;52.108;5.044;2022-08-21T05:56:58;21.65;;;9.40;;
48911;SDS011;34722;52.108;5.044;2022-08-21T05:59:23;21.92;;;11.05;;
48911;SDS011;34722;52.108;5.044;2022-08-21T06:01:49;19.80;;;10.38;;
48911;SDS011;34722;52.108;5.044;2022-08-21T06:04:16;22.95;;;9.57;;
48911;SDS011;34722;52.108;5.044;2022-08-21T06:06:49;18.63;;;9.48;;
48911;SDS011;34722;52.108;5.044;2022-08-21T06:09:15;17.52;;;10.32;;
48911;SDS011;34722;52.108;5.044;2022-08-21T06:11:43;24.83;;;9.52;;
48911;SDS011;34722;52.108;5.044;2022-08-21T06:14:16;29.00;;;9.30;;
48911;SDS011;34722;52.108;5.044;2022-08-21T06:16:50;21.77;;;8.40;;
48911;SDS011;34722;52.108;5.044;2022-08-21T06:19:16;20.55;;;8.45;;
48911;SDS011;34722;52.108;5.044;2022-08-21T06:21:49;26.15;;;9.40;;
48911;SDS011;34722;52.108;5.044;2022-08-21T06:24:15;16.77;;;8.52;;
48911;SDS011;34722;52.108;5.044;2022-08-21T06:26:52;18.67;;;8.80;;
48911;SDS011;34722;52.108;5.044;2022-08-21T06:29:21;20.33;;;7.85;;
48911;SDS011;34722;52.108;5.044;2022-08-21T06:31:50;16.70;;;7.10;;
48911;SDS011;34722;52.108;5.044;2022-08-21T06:34:16;16.85;;;7.53;;
48911;SDS011;34722;52.108;5.044;2022-08-21T06:36:43;17.42;;;6.82;;
48911;SDS011;34722;52.108;5.044;2022-08-21T06:39:09;16.92;;;6.95;;
48911;SDS011;34722;52.108;5.044;2022-08-21T06:41:35;11.32;;;6.32;;
48911;SDS011;34722;52.108;5.044;2022-08-21T06:44:01;10.15;;;5.70;;
48911;SDS011;34722;52.108;5.044;2022-08-21T06:46:30;11.65;;;6.30;;
48911;SDS011;34722;52.108;5.044;2022-08-21T06:48:57;18.33;;;6.32;;
48911;SDS011;34722;52.108;5.044;2022-08-21T06:51:23;13.70;;;6.68;;
48911;SDS011;34722;52.108;5.044;2022-08-21T06:53:50;21.92;;;7.10;;
48911;SDS011;34722;52.108;5.044;2022-08-21T06:56:16;15.65;;;6.20;;
48911;SDS011;34722;52.108;5.044;2022-08-21T06:58:42;16.02;;;7.00;;
48911;SDS011;34722;52.108;5.044;2022-08-21T07:01:11;13.65;;;6.43;;
48911;SDS011;34722;52.108;5.044;2022-08-21T07:03:38;10.15;;;5.15;;
48911;SDS011;34722;52.108;5.044;2022-08-21T07:06:06;13.98;;;6.30;;
48911;SDS011;34722;52.108;5.044;2022-08-21T07:08:34;11.52;;;5.97;;
48911;SDS011;34722;52.108;5.044;2022-08-21T07:14:04;13.48;;;5.70;;
48911;SDS011;34722;52.108;5.044;2022-08-21T07:16:29;13.35;;;5.55;;
48911;SDS011;34722;52.108;5.044;2022-08-21T07:18:55;9.48;;;5.28;;
48911;SDS011;34722;52.108;5.044;2022-08-21T07:21:24;12.00;;;6.00;;
48911;SDS011;34722;52.108;5.044;2022-08-21T07:23:56;11.60;;;6.00;;
48911;SDS011;34722;52.108;5.044;2022-08-21T07:29:16;16.00;;;6.50;;
48911;SDS011;34722;52.108;5.044;2022-08-21T07:31:42;10.35;;;5.35;;
48911;SDS011;34722;52.108;5.044;2022-08-21T07:34:16;11.35;;;5.57;;
48911;SDS011;34722;52.108;5.044;2022-08-21T07:36:41;11.55;;;5.63;;
48911;SDS011;34722;52.108;5.044;2022-08-21T07:39:07;15.32;;;6.22;;
48911;SDS011;34722;52.108;5.044;2022-08-21T07:41:33;16.52;;;5.60;;
48911;SDS011;34722;52.108;5.044;2022-08-21T07:44:00;12.35;;;6.00;;
48911;SDS011;34722;52.108;5.044;2022-08-21T07:46:26;11.13;;;5.78;;
48911;SDS011;34722;52.108;5.044;2022-08-21T07:48:52;16.45;;;6.97;;
48911;SDS011;34722;52.108;5.044;2022-08-21T07:51:20;18.88;;;6.68;;
48911;SDS011;34722;52.108;5.044;2022-08-21T07:53:54;11.88;;;6.00;;
48911;SDS011;34722;52.108;5.044;2022-08-21T07:56:30;13.32;;;6.60;;
48911;SDS011;34722;52.108;5.044;2022-08-21T07:58:56;12.10;;;6.28;;
48911;SDS011;34722;52.108;5.044;2022-08-21T08:01:29;14.67;;;7.47;;
48911;SDS011;34722;52.108;5.044;2022-08-21T08:04:03;16.90;;;6.70;;
48911;SDS011;34722;52.108;5.044;2022-08-21T08:06:34;15.02;;;7.50;;
48911;SDS011;34722;52.108;5.044;2022-08-21T08:09:00;18.52;;;7.72;;
48911;SDS011;34722;52.108;5.044;2022-08-21T08:11:28;14.32;;;7.15;;
48911;SDS011;34722;52.108;5.044;2022-08-21T08:13:55;17.65;;;6.93;;
48911;SDS011;34722;52.108;5.044;2022-08-21T08:16:22;18.17;;;7.57;;
48911;SDS011;34722;52.108;5.044;2022-08-21T08:18:48;18.02;;;8.00;;
48911;SDS011;34722;52.108;5.044;2022-08-21T08:21:15;13.43;;;6.57;;
48911;SDS011;34722;52.108;5.044;2022-08-21T08:23:51;15.48;;;6.60;;
48911;SDS011;34722;52.108;5.044;2022-08-21T08:26:17;12.55;;;6.47;;
48911;SDS011;34722;52.108;5.044;2022-08-21T08:28:46;12.93;;;5.90;;
48911;SDS011;34722;52.108;5.044;2022-08-21T08:31:12;17.25;;;6.57;;
48911;SDS011;34722;52.108;5.044;2022-08-21T08:33:38;11.23;;;5.88;;
48911;SDS011;34722;52.108;5.044;2022-08-21T08:36:04;13.52;;;6.80;;
48911;SDS011;34722;52.108;5.044;2022-08-21T08:38:30;13.32;;;6.18;;
48911;SDS011;34722;52.108;5.044;2022-08-21T08:43:35;16.63;;;6.82;;
48911;SDS011;34722;52.108;5.044;2022-08-21T08:46:03;12.52;;;5.57;;
48911;SDS011;34722;52.108;5.044;2022-08-21T08:51:27;12.07;;;6.30;;
48911;SDS011;34722;52.108;5.044;2022-08-21T08:54:09;11.73;;;5.43;;
48911;SDS011;34722;52.108;5.044;2022-08-21T08:56:40;15.20;;;5.32;;
48911;SDS011;34722;52.108;5.044;2022-08-21T08:59:13;14.48;;;5.50;;
48911;SDS011;34722;52.108;5.044;2022-08-21T09:01:41;15.40;;;5.18;;
48911;SDS011;34722;52.108;5.044;2022-08-21T09:04:08;13.63;;;5.40;;
48911;SDS011;34722;52.108;5.044;2022-08-21T09:06:43;17.95;;;5.10;;
48911;SDS011;34722;52.108;5.044;2022-08-21T09:09:23;14.70;;;5.75;;
48911;SDS011;34722;52.108;5.044;2022-08-21T09:12:09;12.43;;;5.07;;
48911;SDS011;34722;52.108;5.044;2022-08-21T09:14:51;13.25;;;4.82;;
48911;SDS011;34722;52.108;5.044;2022-08-21T09:17:59;9.55;;;4.32;;
48911;SDS011;34722;52.108;5.044;2022-08-21T09:26:23;10.65;;;4.13;;
48911;SDS011;34722;52.108;5.044;2022-08-21T09:28:53;15.88;;;4.28;;
48911;SDS011;34722;52.108;5.044;2022-08-21T09:33:58;12.63;;;3.97;;
48911;SDS011;34722;52.108;5.044;2022-08-21T09:36:43;8.50;;;3.65;;
48911;SDS011;34722;52.108;5.044;2022-08-21T09:39:22;13.45;;;5.13;;
48911;SDS011;34722;52.108;5.044;2022-08-21T09:42:00;13.57;;;3.58;;
48911;SDS011;34722;52.108;5.044;2022-08-21T09:44:33;12.60;;;4.13;;
48911;SDS011;34722;52.108;5.044;2022-08-21T09:47:04;10.75;;;3.58;;
48911;SDS011;34722;52.108;5.044;2022-08-21T09:49:41;12.43;;;3.75;;
48911;SDS011;34722;52.108;5.044;2022-08-21T09:52:21;12.57;;;4.25;;
48911;SDS011;34722;52.108;5.044;2022-08-21T09:54:50;10.50;;;3.35;;
48911;SDS011;34722;52.108;5.044;2022-08-21T09:57:23;10.85;;;3.55;;
48911;SDS011;34722;52.108;5.044;2022-08-21T10:00:49;15.15;;;4.25;;
48911;SDS011;34722;52.108;5.044;2022-08-21T10:03:06;11.25;;;3.63;;
48911;SDS011;34722;52.108;5.044;2022-08-21T10:06:03;9.48;;;3.35;;
48911;SDS011;34722;52.108;5.044;2022-08-21T10:08:34;9.18;;;3.28;;
48911;SDS011;34722;52.108;5.044;2022-08-21T10:11:05;11.93;;;3.72;;
48911;SDS011;34722;52.108;5.044;2022-08-21T10:16:28;17.35;;;4.10;;
48911;SDS011;34722;52.108;5.044;2022-08-21T10:22:00;8.85;;;2.97;;
48911;SDS011;34722;52.108;5.044;2022-08-21T10:25:06;10.20;;;3.35;;
48911;SDS011;34722;52.108;5.044;2022-08-21T10:27:51;9.05;;;3.25;;
48911;SDS011;34722;52.108;5.044;2022-08-21T10:30:52;10.35;;;3.50;;
48911;SDS011;34722;52.108;5.044;2022-08-21T10:36:03;9.90;;;3.17;;
48911;SDS011;34722;52.108;5.044;2022-08-21T10:44:30;9.27;;;3.60;;
48911;SDS011;34722;52.108;5.044;2022-08-21T10:52:25;11.00;;;3.80;;
48911;SDS011;34722;52.108;5.044;2022-08-21T10:55:11;10.63;;;3.83;;
48911;SDS011;34722;52.108;5.044;2022-08-21T10:57:57;13.20;;;3.22;;
48911;SDS011;34722;52.108;5.044;2022-08-21T11:00:48;7.68;;;2.78;;
48911;SDS011;34722;52.108;5.044;2022-08-21T11:06:16;10.43;;;3.28;;
48911;SDS011;34722;52.108;5.044;2022-08-21T11:08:48;7.75;;;3.58;;
48911;SDS011;34722;52.108;5.044;2022-08-21T11:21:49;7.70;;;2.88;;
48911;SDS011;34722;52.108;5.044;2022-08-21T11:24:50;9.27;;;3.20;;
48911;SDS011;34722;52.108;5.044;2022-08-21T11:27:38;8.65;;;3.85;;
48911;SDS011;34722;52.108;5.044;2022-08-21T11:30:52;8.73;;;3.70;;
48911;SDS011;34722;52.108;5.044;2022-08-21T11:36:50;9.73;;;3.22;;
48911;SDS011;34722;52.108;5.044;2022-08-21T11:39:38;9.35;;;3.78;;
48911;SDS011;34722;52.108;5.044;2022-08-21T11:45:47;12.35;;;3.72;;
48911;SDS011;34722;52.108;5.044;2022-08-21T11:51:42;7.40;;;2.65;;
48911;SDS011;34722;52.108;5.044;2022-08-21T12:00:27;11.48;;;3.75;;
48911;SDS011;34722;52.108;5.044;2022-08-21T12:02:45;7.95;;;2.70;;
48911;SDS011;34722;52.108;5.044;2022-08-21T12:06:02;7.45;;;2.78;;
48911;SDS011;34722;52.108;5.044;2022-08-21T12:10:38;8.57;;;3.15;;
48911;SDS011;34722;52.108;5.044;2022-08-21T12:13:26;8.68;;;2.95;;
48911;SDS011;34722;52.108;5.044;2022-08-21T12:16:04;14.57;;;2.92;;
48911;SDS011;34722;52.108;5.044;2022-08-21T12:18:33;7.47;;;2.80;;
48911;SDS011;34722;52.108;5.044;2022-08-21T12:21:20;9.30;;;4.10;;
48911;SDS011;34722;52.108;5.044;2022-08-21T12:23:59;9.23;;;3.17;;
48911;SDS011;34722;52.108;5.044;2022-08-21T12:26:35;12.10;;;2.97;;
48911;SDS011;34722;52.108;5.044;2022-08-21T12:29:14;8.25;;;2.78;;
48911;SDS011;34722;52.108;5.044;2022-08-21T12:32:03;10.52;;;2.88;;
48911;SDS011;34722;52.108;5.044;2022-08-21T12:34:36;13.45;;;3.17;;
48911;SDS011;34722;52.108;5.044;2022-08-21T12:37:18;7.75;;;2.75;;
48911;SDS011;34722;52.108;5.044;2022-08-21T12:40:28;7.57;;;2.75;;
48911;SDS011;34722;52.108;5.044;2022-08-21T12:42:57;10.13;;;3.00;;
48911;SDS011;34722;52.108;5.044;2022-08-21T12:53:35;9.98;;;2.88;;
48911;SDS011;34722;52.108;5.044;2022-08-21T12:56:02;8.98;;;3.03;;
48911;SDS011;34722;52.108;5.044;2022-08-21T12:58:33;5.25;;;2.45;;
48911;SDS011;34722;52.108;5.044;2022-08-21T13:01:02;11.77;;;3.17;;
48911;SDS011;34722;52.108;5.044;2022-08-21T13:03:31;10.15;;;3.25;;
48911;SDS011;34722;52.108;5.044;2022-08-21T13:05:59;6.72;;;3.03;;
48911;SDS011;34722;52.108;5.044;2022-08-21T13:08:26;9.90;;;3.13;;
48911;SDS011;34722;52.108;5.044;2022-08-21T13:10:57;13.90;;;3.50;;
48911;SDS011;34722;52.108;5.044;2022-08-21T13:13:29;7.50;;;2.45;;
48911;SDS011;34722;52.108;5.044;2022-08-21T13:16:01;12.32;;;3.08;;
48911;SDS011;34722;52.108;5.044;2022-08-21T13:21:10;13.73;;;3.78;;
48911;SDS011;34722;52.108;5.044;2022-08-21T13:23:37;6.57;;;2.80;;
48911;SDS011;34722;52.108;5.044;2022-08-21T13:26:14;9.10;;;3.00;;
48911;SDS011;34722;52.108;5.044;2022-08-21T13:28:41;9.80;;;2.45;;
48911;SDS011;34722;52.108;5.044;2022-08-21T13:31:09;8.20;;;2.80;;
48911;SDS011;34722;52.108;5.044;2022-08-21T13:33:35;9.07;;;2.97;;
48911;SDS011;34722;52.108;5.044;2022-08-21T13:39:05;10.70;;;2.90;;
48911;SDS011;34722;52.108;5.044;2022-08-21T13:41:34;7.30;;;2.38;;
48911;SDS011;34722;52.108;5.044;2022-08-21T13:46:28;16.52;;;3.40;;
48911;SDS011;34722;52.108;5.044;2022-08-21T13:49:00;10.95;;;3.00;;
48911;SDS011;34722;52.108;5.044;2022-08-21T13:51:28;9.63;;;2.85;;
48911;SDS011;34722;52.108;5.044;2022-08-21T13:53:56;7.65;;;2.67;;
48911;SDS011;34722;52.108;5.044;2022-08-21T13:56:29;10.45;;;3.00;;
48911;SDS011;34722;52.108;5.044;2022-08-21T13:58:58;8.70;;;2.80;;
48911;SDS011;34722;52.108;5.044;2022-08-21T14:01:27;6.93;;;2.60;;
48911;SDS011;34722;52.108;5.044;2022-08-21T14:03:57;10.73;;;2.50;;
48911;SDS011;34722;52.108;5.044;2022-08-21T14:06:33;7.18;;;2.38;;
48911;SDS011;34722;52.108;5.044;2022-08-21T14:09:07;8.93;;;3.65;;
48911;SDS011;34722;52.108;5.044;2022-08-21T14:11:36;7.72;;;2.75;;
48911;SDS011;34722;52.108;5.044;2022-08-21T14:14:05;5.93;;;2.47;;
48911;SDS011;34722;52.108;5.044;2022-08-21T14:16:52;4.43;;;2.40;;
48911;SDS011;34722;52.108;5.044;2022-08-21T14:19:22;8.18;;;2.22;;
48911;SDS011;34722;52.108;5.044;2022-08-21T14:21:49;7.28;;;2.78;;
48911;SDS011;34722;52.108;5.044;2022-08-21T14:27:03;7.10;;;2.20;;
48911;SDS011;34722;52.108;5.044;2022-08-21T14:29:37;7.93;;;2.35;;
48911;SDS011;34722;52.108;5.044;2022-08-21T14:32:09;11.63;;;2.92;;
48911;SDS011;34722;52.108;5.044;2022-08-21T14:34:47;5.40;;;2.45;;
48911;SDS011;34722;52.108;5.044;2022-08-21T14:37:13;7.53;;;2.80;;
48911;SDS011;34722;52.108;5.044;2022-08-21T14:42:17;10.57;;;3.17;;
48911;SDS011;34722;52.108;5.044;2022-08-21T14:44:44;9.50;;;3.28;;
48911;SDS011;34722;52.108;5.044;2022-08-21T14:47:13;7.32;;;2.60;;
48911;SDS011;34722;52.108;5.044;2022-08-21T14:49:39;9.48;;;3.25;;
48911;SDS011;34722;52.108;5.044;2022-08-21T14:52:05;5.30;;;2.60;;
48911;SDS011;34722;52.108;5.044;2022-08-21T14:54:31;6.95;;;2.38;;
48911;SDS011;34722;52.108;5.044;2022-08-21T14:57:06;7.50;;;2.92;;
48911;SDS011;34722;52.108;5.044;2022-08-21T14:59:34;11.40;;;2.75;;
48911;SDS011;34722;52.108;5.044;2022-08-21T15:02:01;8.05;;;3.03;;
48911;SDS011;34722;52.108;5.044;2022-08-21T15:04:29;8.13;;;3.00;;
48911;SDS011;34722;52.108;5.044;2022-08-21T15:06:56;11.40;;;3.15;;
48911;SDS011;34722;52.108;5.044;2022-08-21T15:09:22;12.70;;;2.95;;
48911;SDS011;34722;52.108;5.044;2022-08-21T15:11:48;12.02;;;2.72;;
48911;SDS011;34722;52.108;5.044;2022-08-21T15:14:18;7.05;;;2.35;;
48911;SDS011;34722;52.108;5.044;2022-08-21T15:16:51;11.57;;;2.83;;
48911;SDS011;34722;52.108;5.044;2022-08-21T15:19:17;13.45;;;2.95;;
48911;SDS011;34722;52.108;5.044;2022-08-21T15:21:43;9.18;;;3.03;;
48911;SDS011;34722;52.108;5.044;2022-08-21T15:24:09;9.25;;;2.88;;
48911;SDS011;34722;52.108;5.044;2022-08-21T15:26:35;5.88;;;2.33;;
48911;SDS011;34722;52.108;5.044;2022-08-21T15:29:01;8.07;;;2.13;;
48911;SDS011;34722;52.108;5.044;2022-08-21T15:31:29;10.27;;;3.03;;
48911;SDS011;34722;52.108;5.044;2022-08-21T15:33:55;7.68;;;2.47;;
48911;SDS011;34722;52.108;5.044;2022-08-21T15:36:23;10.27;;;2.60;;
48911;SDS011;34722;52.108;5.044;2022-08-21T15:38:48;15.13;;;3.08;;
48911;SDS011;34722;52.108;5.044;2022-08-21T15:41:14;11.10;;;2.70;;
48911;SDS011;34722;52.108;5.044;2022-08-21T15:43:45;6.60;;;2.72;;
48911;SDS011;34722;52.108;5.044;2022-08-21T15:46:16;11.65;;;3.38;;
48911;SDS011;34722;52.108;5.044;2022-08-21T15:48:46;9.98;;;2.75;;
48911;SDS011;34722;52.108;5.044;2022-08-21T15:51:13;9.73;;;3.40;;
48911;SDS011;34722;52.108;5.044;2022-08-21T15:53:40;12.27;;;3.13;;
48911;SDS011;34722;52.108;5.044;2022-08-21T15:56:11;6.82;;;2.30;;
48911;SDS011;34722;52.108;5.044;2022-08-21T15:58:50;6.43;;;2.20;;
48911;SDS011;34722;52.108;5.044;2022-08-21T16:01:21;8.45;;;2.53;;
48911;SDS011;34722;52.108;5.044;2022-08-21T16:03:48;8.73;;;2.47;;
48911;SDS011;34722;52.108;5.044;2022-08-21T16:06:16;9.57;;;2.92;;
48911;SDS011;34722;52.108;5.044;2022-08-21T16:08:42;10.70;;;2.53;;
48911;SDS011;34722;52.108;5.044;2022-08-21T16:11:09;10.48;;;2.28;;
48911;SDS011;34722;52.108;5.044;2022-08-21T16:13:40;8.57;;;2.58;;
48911;SDS011;34722;52.108;5.044;2022-08-21T16:16:09;9.50;;;2.83;;
48911;SDS011;34722;52.108;5.044;2022-08-21T16:18:38;9.98;;;2.60;;
48911;SDS011;34722;52.108;5.044;2022-08-21T16:21:05;8.88;;;3.15;;
48911;SDS011;34722;52.108;5.044;2022-08-21T16:23:33;7.38;;;2.80;;
48911;SDS011;34722;52.108;5.044;2022-08-21T16:26:03;7.68;;;2.35;;
48911;SDS011;34722;52.108;5.044;2022-08-21T16:28:31;8.70;;;2.63;;
48911;SDS011;34722;52.108;5.044;2022-08-21T16:31:00;6.22;;;2.50;;
48911;SDS011;34722;52.108;5.044;2022-08-21T16:33:32;12.23;;;2.83;;
48911;SDS011;34722;52.108;5.044;2022-08-21T16:36:01;10.13;;;2.72;;